Ana Sayfa
METAR-TAF:

METAR-TAF

Havaalanları :

Ercan Uluslararası Havalimanı

Lefkoşa, Kıbrıs

Enlem: 35-09N, Boylam: 033-30E, yükseklik: 91 m

Güncel hava durumu gözlemi

Rapor saat 20:20 UTC de 22 dakika önce yapıldı.
Rüzgar batı/kuzeybatıdan 16 kt
Sıcaklık 25°C
Nem 54%
Basınç 1012 hPa
Görüş mesafesi 10 km veya daha fazla
1500 m altında bulut yok ve kümülonimbus yok

METAR: LCEN 232020Z 30016KT CAVOK 25/15 Q1012 NOSIG RMK RWY11 30013KT

Saat: 23:42 (20:42 UTC)

Tahmin

Rapor saat 16:40 UTC de 4 saat ve 2 dakika önce yapıldı.
Ayın 23'si saat 18 UTC'den ayın 24'si saat 18 UTC'ye kadar geçerli Tahmin
Rüzgar batıdan 15 kt
Görüş mesafesi 10 km veya daha fazla
1500 m altında bulut yok ve kümülonimbus yok
Geçici
ayın 23'si saat 21 UTC'den ayın 23'si saat 24 UTC'ye kadar
Görüş mesafesi 10 km veya daha fazla
2500 ft yükseklikte az bulutlu
20000 ft yükseklikte parçalı çok bulutlu

TAF: LCEN 231640Z 2318/2418 28015KT CAVOK TEMPO 2321/2324 9999 FEW025 BKN200

4.000'den fazla havaalanı için hava durumu gözlemleri ve tahminleri (METAR ve TAF raporları).

Kullanılabilir istasyonlar harita üzerinde sarı ve kırmızı noktalarla gösterilir.

İstasyonun adını görmek için fareyi noktanın üzerinde gezdirin.

Sonrasında hava gözlem ve tahminlerini görmek için tıklayın.

Haritayı değiştirmek için: yaklaştırmak için siyah artı işaretli yeşil düğmeye ve uzaklaştırmak için de eksi işaretli düğmeye hızla tıklayın; bitişik haritalar için yeşil okları kullanın.


METAR-TAF: